createdAt,value
2018-11-28T00:00:11.529Z,70.44
2018-11-28T00:02:39.206Z,70.31
2018-11-28T00:05:10.949Z,69.86
2018-11-28T00:07:38.933Z,70.46
2018-11-28T00:10:12.045Z,70.32
2018-11-28T00:12:39.922Z,70.37
2018-11-28T00:15:11.680Z,70.47
2018-11-28T00:17:39.358Z,70.62
2018-11-28T00:20:09.898Z,71.11
2018-11-28T00:22:37.729Z,70.61
2018-11-28T00:25:06.689Z,69.92
2018-11-28T00:27:34.420Z,70.07
2018-11-28T00:30:02.229Z,70.50
2018-11-28T00:32:29.879Z,70.94
2018-11-28T00:34:57.551Z,70.97
2018-11-28T00:37:25.280Z,70.91
2018-11-28T00:39:59.726Z,70.79
2018-11-28T00:42:30.111Z,71.21
2018-11-28T00:44:58.270Z,71.86
2018-11-28T00:47:26.045Z,71.25
2018-11-28T00:49:53.910Z,71.30
2018-11-28T00:52:21.693Z,71.24
2018-11-28T00:54:49.543Z,71.43
2018-11-28T00:57:17.198Z,71.51
2018-11-28T00:59:44.808Z,71.82
2018-11-28T01:02:12.575Z,71.47
2018-11-28T01:04:40.225Z,71.14
2018-11-28T01:07:07.940Z,71.33
2018-11-28T01:09:35.569Z,71.21
2018-11-28T01:12:03.293Z,71.27
2018-11-28T01:14:31.006Z,71.12
2018-11-28T01:16:58.692Z,70.57
2018-11-28T01:19:26.412Z,71.37
2018-11-28T01:21:54.153Z,71.19
2018-11-28T01:24:21.804Z,71.01
2018-11-28T01:26:49.470Z,70.73
2018-11-28T01:29:17.129Z,70.87
2018-11-28T01:31:44.733Z,70.90
2018-11-28T01:34:12.434Z,70.57
2018-11-28T01:36:40.142Z,70.84
2018-11-28T01:39:07.880Z,70.81
2018-11-28T01:41:35.574Z,70.75
2018-11-28T01:44:03.241Z,71.12
2018-11-28T01:46:31.041Z,71.05
2018-11-28T01:48:58.700Z,70.98
2018-11-28T01:51:26.322Z,70.30
2018-11-28T01:53:53.987Z,70.46
2018-11-28T01:56:21.730Z,70.34
2018-11-28T01:58:49.857Z,70.58
2018-11-28T02:01:17.588Z,70.60
2018-11-28T02:03:45.230Z,70.92
2018-11-28T02:06:12.912Z,70.76
2018-11-28T02:08:40.601Z,71.04
2018-11-28T02:11:08.339Z,70.88
2018-11-28T02:13:36.082Z,70.46
2018-11-28T02:16:03.839Z,71.09
2018-11-28T02:18:31.530Z,70.31
2018-11-28T02:20:59.278Z,70.98
2018-11-28T02:23:27.037Z,70.98
2018-11-28T02:25:54.723Z,71.11
2018-11-28T02:28:22.533Z,70.78
2018-11-28T02:30:50.272Z,71.34
2018-11-28T02:33:17.950Z,71.28
2018-11-28T02:35:45.679Z,70.53
2018-11-28T02:38:13.360Z,70.39
2018-11-28T02:40:41.052Z,69.93
2018-11-28T02:43:08.891Z,70.45
2018-11-28T02:45:36.835Z,69.71
2018-11-28T02:48:05.384Z,69.71
2018-11-28T02:50:33.495Z,70.39
2018-11-28T02:53:01.153Z,70.45
2018-11-28T02:55:28.913Z,70.58
2018-11-28T02:57:56.631Z,70.59
2018-11-28T03:00:25.319Z,70.34
2018-11-28T03:02:53.234Z,69.92
2018-11-28T03:05:21.081Z,69.75
2018-11-28T03:07:48.843Z,69.65
2018-11-28T03:10:18.894Z,69.48
2018-11-28T03:12:46.671Z,69.26
2018-11-28T03:15:22.134Z,69.45
2018-11-28T03:17:49.872Z,69.17
2018-11-28T03:20:17.668Z,70.34
2018-11-28T03:22:45.317Z,70.36
2018-11-28T03:25:13.029Z,70.54
2018-11-28T03:27:40.704Z,70.37
2018-11-28T03:30:14.173Z,70.38
2018-11-28T03:32:41.828Z,70.39
2018-11-28T03:35:14.567Z,70.28
2018-11-28T03:37:42.553Z,70.02
2018-11-28T03:40:10.527Z,69.98
2018-11-28T03:42:38.271Z,70.41
2018-11-28T03:45:11.177Z,70.47
2018-11-28T03:47:39.017Z,69.90
2018-11-28T03:50:09.102Z,69.44
2018-11-28T03:52:37.790Z,69.69
2018-11-28T03:55:08.886Z,69.89
2018-11-28T03:57:36.554Z,69.85
2018-11-28T04:00:09.360Z,69.18
2018-11-28T04:02:37.098Z,69.09
2018-11-28T04:05:05.341Z,70.30
2018-11-28T04:07:33.181Z,69.80
2018-11-28T04:10:00.862Z,70.08
2018-11-28T04:12:28.589Z,70.25
2018-11-28T04:14:56.265Z,69.82
2018-11-28T04:17:23.914Z,69.78
2018-11-28T04:19:51.717Z,69.51
2018-11-28T04:22:19.446Z,69.45
2018-11-28T04:24:47.086Z,69.83
2018-11-28T04:27:15.700Z,69.63
2018-11-28T04:29:44.274Z,70.06
2018-11-28T04:32:12.011Z,70.51
2018-11-28T04:34:39.647Z,70.59
2018-11-28T04:37:07.387Z,70.16
2018-11-28T04:39:35.165Z,69.70
2018-11-28T04:42:02.907Z,70.03
2018-11-28T04:44:30.704Z,70.21
2018-11-28T04:46:58.430Z,70.00
2018-11-28T04:49:26.150Z,70.03
2018-11-28T04:52:00.603Z,69.88
2018-11-28T04:54:29.485Z,70.04
2018-11-28T04:56:57.157Z,69.54
2018-11-28T04:59:24.869Z,69.71
2018-11-28T05:01:52.636Z,69.59
2018-11-28T05:04:20.500Z,69.91
2018-11-28T05:07:52.217Z,70.37
2018-11-28T05:10:23.008Z,70.58
2018-11-28T05:12:51.502Z,70.67
2018-11-28T05:15:23.602Z,70.96
2018-11-28T05:17:53.423Z,70.32
2018-11-28T05:20:21.974Z,70.91
2018-11-28T05:22:49.871Z,70.64
2018-11-28T05:25:19.860Z,70.77
2018-11-28T05:27:48.560Z,70.69
2018-11-28T05:30:24.681Z,70.46
2018-11-28T05:32:52.401Z,70.44
2018-11-28T05:35:24.935Z,70.01
2018-11-28T05:37:53.209Z,69.93
2018-11-28T05:40:26.298Z,69.79
2018-11-28T05:42:54.432Z,70.32
2018-11-28T05:45:22.550Z,70.17
2018-11-28T05:47:50.241Z,70.30
2018-11-28T05:50:20.192Z,70.13
2018-11-28T05:52:47.946Z,70.23
2018-11-28T05:55:17.279Z,70.11
2018-11-28T05:57:45.079Z,70.25
2018-11-28T06:00:22.765Z,69.85
2018-11-28T06:02:50.488Z,70.12
2018-11-28T06:05:18.205Z,70.23
2018-11-28T06:07:45.913Z,70.50
2018-11-28T06:10:13.631Z,70.23
2018-11-28T06:12:43.787Z,69.74
2018-11-28T06:15:12.237Z,69.80
2018-11-28T06:17:39.964Z,70.33
2018-11-28T06:20:13.779Z,69.62
2018-11-28T06:22:42.184Z,69.77
2018-11-28T06:25:17.990Z,69.58
2018-11-28T06:27:51.683Z,69.64
2018-11-28T06:30:20.061Z,70.36
2018-11-28T06:32:51.306Z,69.90
2018-11-28T06:35:15.547Z,70.00
2018-11-28T06:37:43.559Z,69.74
2018-11-28T06:40:14.485Z,69.15
2018-11-28T06:42:43.343Z,69.32
2018-11-28T06:45:13.140Z,69.07
2018-11-28T06:47:41.899Z,69.44
2018-11-28T06:50:13.408Z,69.63
2018-11-28T06:52:41.717Z,68.89
2018-11-28T06:55:14.281Z,68.92
2018-11-28T06:57:42.194Z,69.20
2018-11-28T07:00:15.689Z,68.94
2018-11-28T07:02:45.322Z,68.64
2018-11-28T07:05:13.823Z,68.13
2018-11-28T07:07:41.635Z,68.46
2018-11-28T07:10:11.343Z,68.22
2018-11-28T07:12:40.389Z,67.91
2018-11-28T07:15:11.669Z,68.31
2018-11-28T07:17:40.262Z,68.27
2018-11-28T07:20:12.250Z,67.96
2018-11-28T07:22:40.001Z,68.27
2018-11-28T07:25:09.710Z,67.84
2018-11-28T07:27:37.468Z,68.01
2018-11-28T07:30:13.522Z,67.95
2018-11-28T07:32:41.997Z,67.94
2018-11-28T07:35:10.766Z,67.83
2018-11-28T07:37:38.583Z,67.57
2018-11-28T07:40:15.697Z,67.11
2018-11-28T07:42:48.726Z,66.60
2018-11-28T07:45:16.461Z,66.60
2018-11-28T07:47:44.225Z,66.14
2018-11-28T07:50:13.118Z,65.71
2018-11-28T07:52:40.803Z,65.51
2018-11-28T07:55:11.712Z,65.51
2018-11-28T07:57:39.604Z,65.28
2018-11-28T08:00:13.253Z,64.82
2018-11-28T08:02:41.753Z,65.10
2018-11-28T08:05:10.862Z,65.34
2018-11-28T08:07:39.375Z,64.81
2018-11-28T08:10:16.654Z,64.71
2018-11-28T08:12:44.407Z,64.30
2018-11-28T08:15:12.142Z,63.63
2018-11-28T08:17:39.829Z,63.37
2018-11-28T08:20:07.622Z,63.45
2018-11-28T08:22:36.222Z,62.86
2018-11-28T08:25:03.483Z,62.95
2018-11-28T08:27:31.000Z,62.52
2018-11-28T08:29:58.698Z,62.38
2018-11-28T08:32:26.447Z,61.62
2018-11-28T08:34:54.205Z,61.32
2018-11-28T08:37:21.912Z,60.80
2018-11-28T08:39:49.678Z,60.69
2018-11-28T08:42:17.490Z,60.85
2018-11-28T08:44:45.194Z,61.64
2018-11-28T08:47:12.988Z,61.06
2018-11-28T08:49:40.686Z,60.95
2018-11-28T08:52:08.382Z,61.00
2018-11-28T08:54:36.127Z,60.20
2018-11-28T08:57:04.200Z,60.83
2018-11-28T08:59:31.668Z,60.83
2018-11-28T09:01:59.353Z,60.54
2018-11-28T09:04:27.124Z,60.35
2018-11-28T09:06:54.905Z,60.31
2018-11-28T09:09:22.743Z,60.18
2018-11-28T09:11:50.412Z,60.47
2018-11-28T09:14:18.101Z,59.97
2018-11-28T09:16:45.898Z,59.54
2018-11-28T09:19:13.609Z,59.87
2018-11-28T09:21:41.290Z,60.35
2018-11-28T09:24:09.055Z,60.03
2018-11-28T09:26:36.765Z,59.84
2018-11-28T09:29:05.689Z,59.36
2018-11-28T09:31:33.374Z,59.54
2018-11-28T09:34:01.825Z,59.28
2018-11-28T09:36:29.568Z,59.58
2018-11-28T09:38:57.962Z,59.60
2018-11-28T09:41:25.682Z,59.08
2018-11-28T09:43:53.418Z,59.38
2018-11-28T09:46:21.199Z,58.87
2018-11-28T09:48:48.938Z,58.61
2018-11-28T09:51:16.649Z,58.82
2018-11-28T09:53:44.330Z,58.72
2018-11-28T09:56:12.049Z,58.47
2018-11-28T09:58:39.725Z,59.06
2018-11-28T10:01:07.970Z,58.15
2018-11-28T10:03:35.690Z,59.11
2018-11-28T10:06:03.556Z,58.29
2018-11-28T10:08:31.251Z,58.71
2018-11-28T10:10:59.105Z,58.59
2018-11-28T10:13:27.043Z,58.25
2018-11-28T10:15:54.608Z,57.58
2018-11-28T10:18:22.431Z,57.58
2018-11-28T10:20:50.144Z,57.89
2018-11-28T10:23:17.887Z,57.35
2018-11-28T10:25:45.663Z,57.87
2018-11-28T10:28:13.379Z,57.15
2018-11-28T10:30:41.109Z,57.77
2018-11-28T10:33:11.252Z,57.16
2018-11-28T10:35:40.034Z,56.78
2018-11-28T10:38:07.873Z,57.48
2018-11-28T10:40:36.428Z,57.58
2018-11-28T10:43:05.039Z,57.26
2018-11-28T10:45:32.889Z,56.70
2018-11-28T10:48:00.694Z,56.38
2018-11-28T10:50:28.553Z,55.84
2018-11-28T10:52:56.299Z,53.90
2018-11-28T10:55:25.272Z,51.26
2018-11-28T10:57:52.980Z,48.53
2018-11-28T11:00:32.900Z,46.33
2018-11-28T11:03:12.292Z,44.48
2018-11-28T11:05:46.702Z,43.28
2018-11-28T11:08:20.175Z,40.11
2018-11-28T11:10:53.727Z,38.05
2018-11-28T11:13:27.289Z,37.15
2018-11-28T11:15:58.631Z,36.21
2018-11-28T11:18:27.470Z,35.36
2018-11-28T11:20:55.136Z,33.97
2018-11-28T11:23:22.943Z,32.17
2018-11-28T11:25:51.205Z,30.33
2018-11-28T11:28:19.363Z,28.83
2018-11-28T11:30:47.290Z,28.36
2018-11-28T11:33:15.248Z,26.75
2018-11-28T11:35:43.003Z,25.61
2018-11-28T11:38:10.788Z,24.06
2018-11-28T11:40:38.569Z,24.04
2018-11-28T11:43:06.784Z,23.32
2018-11-28T11:45:34.660Z,22.59
2018-11-28T11:48:02.423Z,21.80
2018-11-28T11:50:30.211Z,20.94
2018-11-28T11:52:57.933Z,21.20
2018-11-28T11:55:25.644Z,21.53
2018-11-28T11:57:53.613Z,21.19
2018-11-28T12:00:24.492Z,20.76
2018-11-28T12:03:02.522Z,20.67
2018-11-28T12:05:30.221Z,21.27
2018-11-28T12:07:57.919Z,20.86
2018-11-28T12:10:26.481Z,21.12
2018-11-28T12:12:54.267Z,21.53
2018-11-28T12:15:22.036Z,21.91
2018-11-28T12:17:49.899Z,22.09
2018-11-28T12:20:23.158Z,21.94
2018-11-28T12:22:50.832Z,21.90
2018-11-28T12:25:18.531Z,20.54
2018-11-28T12:27:46.512Z,20.18
2018-11-28T12:30:14.921Z,19.03
2018-11-28T12:32:43.393Z,20.11
2018-11-28T12:35:19.184Z,18.98
2018-11-28T12:37:47.022Z,18.84
2018-11-28T12:40:16.150Z,19.20
2018-11-28T12:42:49.197Z,18.08
2018-11-28T12:45:18.266Z,18.66
2018-11-28T12:47:46.834Z,18.53
2018-11-28T12:50:23.091Z,17.96
2018-11-28T12:52:51.833Z,19.43
2018-11-28T12:55:20.163Z,19.71
2018-11-28T12:57:47.983Z,19.92
2018-11-28T13:00:21.169Z,19.37
2018-11-28T13:02:48.958Z,18.85
2018-11-28T13:05:20.231Z,18.46
2018-11-28T13:07:48.042Z,20.15
2018-11-28T13:10:23.463Z,21.02
2018-11-28T13:12:51.424Z,19.18
2018-11-28T13:15:20.495Z,19.37
2018-11-28T13:17:48.158Z,18.18
2018-11-28T13:20:17.525Z,18.26
2018-11-28T13:22:46.721Z,19.05
2018-11-28T13:25:16.325Z,18.73
2018-11-28T13:27:44.103Z,19.54
2018-11-28T13:30:14.474Z,19.45
2018-11-28T13:32:43.904Z,19.65
2018-11-28T13:35:13.205Z,19.43
2018-11-28T13:37:42.209Z,18.50
2018-11-28T13:40:14.445Z,18.90
2018-11-28T13:42:42.277Z,19.48
2018-11-28T13:45:13.815Z,18.62
2018-11-28T13:47:43.084Z,19.15
2018-11-28T13:50:11.174Z,22.25
2018-11-28T13:52:38.896Z,25.78
2018-11-28T13:57:46.543Z,31.30
2018-11-28T14:00:14.242Z,33.64
2018-11-28T14:02:42.029Z,35.17
2018-11-28T14:05:11.571Z,36.68
2018-11-28T14:07:39.266Z,37.60
2018-11-28T14:10:10.857Z,38.95
2018-11-28T14:12:38.585Z,39.93
2018-11-28T14:15:18.232Z,41.21
2018-11-28T14:17:58.695Z,42.23
2018-11-28T14:20:26.532Z,42.28
2018-11-28T14:22:54.336Z,42.97
2018-11-28T14:25:22.030Z,43.33
2018-11-28T14:27:49.784Z,43.98
2018-11-28T14:30:20.022Z,43.92
2018-11-28T14:32:48.038Z,45.00
2018-11-28T14:35:15.990Z,45.36
2018-11-28T14:37:44.157Z,45.98
2018-11-28T14:40:18.806Z,45.94
2018-11-28T14:42:49.146Z,46.64
2018-11-28T14:45:18.242Z,47.22
2018-11-28T14:47:46.814Z,47.39
2018-11-28T14:50:17.005Z,47.23
2018-11-28T14:52:44.936Z,48.30
2018-11-28T14:55:15.687Z,48.46
2018-11-28T14:57:43.406Z,48.88
2018-11-28T15:00:20.752Z,48.35
2018-11-28T15:02:53.314Z,49.25
2018-11-28T15:06:06.294Z,49.00
2018-11-28T15:08:34.107Z,49.68
2018-11-28T15:11:08.130Z,49.74
2018-11-28T15:13:36.934Z,50.32
2018-11-28T15:16:05.128Z,49.89
2018-11-28T15:18:32.857Z,50.50
2018-11-28T15:21:00.549Z,50.33
2018-11-28T15:23:28.230Z,50.63
2018-11-28T15:25:55.930Z,50.77
2018-11-28T15:28:23.731Z,50.32
2018-11-28T15:30:51.514Z,50.86
2018-11-28T15:33:19.248Z,50.92
2018-11-28T15:35:46.938Z,51.12
2018-11-28T15:38:14.726Z,51.20
2018-11-28T15:40:42.474Z,51.60
2018-11-28T15:43:10.218Z,51.57
2018-11-28T15:45:37.925Z,51.34
2018-11-28T15:48:06.106Z,51.91
2018-11-28T15:50:33.901Z,52.06
2018-11-28T15:53:01.628Z,52.52
2018-11-28T15:55:29.753Z,52.25
2018-11-28T15:57:57.434Z,52.55
2018-11-28T16:00:26.137Z,52.79
2018-11-28T16:02:54.135Z,53.14
2018-11-28T16:05:21.919Z,53.13
2018-11-28T16:07:49.686Z,53.21
2018-11-28T16:10:49.640Z,53.26
2018-11-28T16:13:18.328Z,53.46
2018-11-28T16:15:51.275Z,53.70
2018-11-28T16:18:18.994Z,53.53
2018-11-28T16:20:46.699Z,54.42
2018-11-28T16:23:14.464Z,53.83
2018-11-28T16:25:42.170Z,54.49
2018-11-28T16:28:09.968Z,54.24
2018-11-28T16:30:37.736Z,54.17
2018-11-28T16:33:06.629Z,54.60
2018-11-28T16:35:35.464Z,54.91
2018-11-28T16:38:03.535Z,55.23
2018-11-28T16:40:31.311Z,54.71
2018-11-28T16:42:59.063Z,54.30
2018-11-28T16:45:26.887Z,54.90
2018-11-28T16:47:57.580Z,55.06
2018-11-28T16:50:25.425Z,55.58
2018-11-28T16:52:55.218Z,55.22
2018-11-28T16:55:22.948Z,55.71
2018-11-28T16:57:52.513Z,55.02
2018-11-28T17:00:24.595Z,55.44
2018-11-28T17:02:54.402Z,55.90
2018-11-28T17:05:22.717Z,55.17
2018-11-28T17:07:51.075Z,55.39
2018-11-28T17:10:25.704Z,55.35
2018-11-28T17:12:55.896Z,55.89
2018-11-28T17:15:23.707Z,56.19
2018-11-28T17:17:51.477Z,55.86
2018-11-28T17:20:22.264Z,55.91
2018-11-28T17:22:51.743Z,56.42
2018-11-28T17:25:25.386Z,56.46
2018-11-28T17:27:53.881Z,56.83
2018-11-28T17:30:24.674Z,56.26
2018-11-28T17:32:53.531Z,56.32
2018-11-28T17:35:21.285Z,56.46
2018-11-28T17:37:49.207Z,56.89
2018-11-28T17:40:19.539Z,56.91
2018-11-28T17:42:49.620Z,57.06
2018-11-28T17:45:18.185Z,57.06
2018-11-28T17:47:45.937Z,57.05
2018-11-28T17:50:21.728Z,57.00
2018-11-28T17:53:07.345Z,57.81
2018-11-28T17:55:44.536Z,57.64
2018-11-28T17:58:13.330Z,57.60
2018-11-28T18:00:41.112Z,57.75
2018-11-28T18:03:09.508Z,57.41
2018-11-28T18:05:37.329Z,57.59
2018-11-28T18:08:05.286Z,57.46
2018-11-28T18:10:33.023Z,57.51
2018-11-28T18:13:12.707Z,57.82
2018-11-28T18:15:43.577Z,58.18
2018-11-28T18:18:13.250Z,58.44
2018-11-28T18:20:41.695Z,58.70
2018-11-28T18:23:10.136Z,58.38
2018-11-28T18:25:39.222Z,58.43
2018-11-28T18:30:30.307Z,58.89
2018-11-28T18:32:58.122Z,59.25
2018-11-28T18:35:27.241Z,58.74
2018-11-28T18:37:55.052Z,58.89
2018-11-28T18:40:22.753Z,59.43
2018-11-28T18:42:50.452Z,59.21
2018-11-28T18:45:20.841Z,59.60
2018-11-28T18:47:49.135Z,60.21
2018-11-28T18:50:19.034Z,60.25
2018-11-28T18:52:46.763Z,60.03
2018-11-28T18:55:19.790Z,59.87
2018-11-28T18:57:54.601Z,60.31
2018-11-28T19:00:24.834Z,60.11
2018-11-28T19:02:54.536Z,60.39
2018-11-28T19:05:22.221Z,60.11
2018-11-28T19:07:54.824Z,60.47
2018-11-28T19:10:26.411Z,60.48
2018-11-28T19:12:53.338Z,60.71
2018-11-28T19:15:27.972Z,60.46
2018-11-28T19:17:56.909Z,60.09
2018-11-28T19:20:25.677Z,60.67
2018-11-28T19:22:54.848Z,60.75
2018-11-28T19:25:24.907Z,60.12
2018-11-28T19:27:53.613Z,60.65
2018-11-28T19:30:38.432Z,60.62
2018-11-28T19:33:09.438Z,61.30
2018-11-28T19:35:37.183Z,61.34
2018-11-28T19:38:10.581Z,60.93
2018-11-28T19:40:44.559Z,60.93
2018-11-28T19:43:12.226Z,61.33
2018-11-28T19:45:40.661Z,61.18
2018-11-28T19:48:08.800Z,61.13
2018-11-28T19:50:37.718Z,61.44
2018-11-28T19:53:08.024Z,62.30
2018-11-28T19:55:35.738Z,62.20
2018-11-28T19:58:03.868Z,62.14
2018-11-28T20:00:31.563Z,61.72
2018-11-28T20:02:59.903Z,62.04
2018-11-28T20:05:28.994Z,61.81
2018-11-28T20:07:57.431Z,62.36
2018-11-28T20:10:26.464Z,62.42
2018-11-28T20:12:54.556Z,62.38
2018-11-28T20:15:25.203Z,62.94
2018-11-28T20:17:53.070Z,62.89
2018-11-28T20:20:21.325Z,62.82
2018-11-28T20:22:49.677Z,63.02
2018-11-28T20:25:20.622Z,62.14
2018-11-28T20:27:54.721Z,62.33
2018-11-28T20:30:29.925Z,62.28
2018-11-28T20:32:58.660Z,62.39
2018-11-28T20:35:26.968Z,63.03
2018-11-28T20:37:54.720Z,62.78
2018-11-28T20:40:24.369Z,62.15
2018-11-28T20:42:55.118Z,62.91
2018-11-28T20:45:22.910Z,62.19
2018-11-28T20:47:52.087Z,62.30
2018-11-28T20:50:30.141Z,62.35
2018-11-28T20:53:15.262Z,62.14
2018-11-28T20:55:43.393Z,61.74
2018-11-28T20:58:11.737Z,61.77
2018-11-28T21:00:39.422Z,61.98
2018-11-28T21:03:08.454Z,61.94
2018-11-28T21:05:36.357Z,61.55
2018-11-28T21:08:06.281Z,61.88
2018-11-28T21:10:36.879Z,62.58
2018-11-28T21:13:06.709Z,62.59
2018-11-28T21:15:34.450Z,62.94
2018-11-28T21:18:02.223Z,62.24
2018-11-28T21:20:29.936Z,62.68
2018-11-28T21:22:59.716Z,62.57
2018-11-28T21:25:27.371Z,62.95
2018-11-28T21:27:55.051Z,62.36
2018-11-28T21:30:22.768Z,62.66
2018-11-28T21:32:53.217Z,62.65
2018-11-28T21:35:25.009Z,62.75
2018-11-28T21:37:52.736Z,62.90
2018-11-28T21:40:20.366Z,62.99
2018-11-28T21:42:48.023Z,62.80
2018-11-28T21:45:17.403Z,62.81
2018-11-28T21:47:45.136Z,63.06
2018-11-28T21:50:15.397Z,62.83
2018-11-28T21:52:44.133Z,63.36
2018-11-28T21:55:14.993Z,63.14
2018-11-28T21:57:42.837Z,62.96
2018-11-28T22:00:14.757Z,63.31
2018-11-28T22:02:43.265Z,63.68
2018-11-28T22:05:12.511Z,63.99
2018-11-28T22:07:40.246Z,63.42
2018-11-28T22:10:18.502Z,63.45
2018-11-28T22:12:46.276Z,63.50
2018-11-28T22:15:15.783Z,63.15
2018-11-28T22:17:49.883Z,64.29
2018-11-28T22:20:18.521Z,64.23
2018-11-28T22:22:46.234Z,63.96
2018-11-28T22:25:17.155Z,64.25
2018-11-28T22:27:44.806Z,63.72
2018-11-28T22:30:14.241Z,63.99
2018-11-28T22:32:42.057Z,64.20
2018-11-28T22:35:10.422Z,64.03
2018-11-28T22:37:38.129Z,64.31
2018-11-28T22:40:17.567Z,64.05
2018-11-28T22:42:45.238Z,64.19
2018-11-28T22:45:18.045Z,64.18
2018-11-28T22:47:46.526Z,64.80
2018-11-28T22:50:14.424Z,64.56
2018-11-28T22:52:42.142Z,64.30
2018-11-28T22:55:13.124Z,65.30
2018-11-28T22:57:40.774Z,65.12
2018-11-28T23:00:31.175Z,64.84
2018-11-28T23:03:04.689Z,65.35
2018-11-28T23:06:03.611Z,65.37
2018-11-28T23:08:31.374Z,65.04
2018-11-28T23:10:59.053Z,65.02
2018-11-28T23:13:27.348Z,65.52
2018-11-28T23:15:55.086Z,65.15
2018-11-28T23:18:22.722Z,65.12
2018-11-28T23:20:50.374Z,65.35
2018-11-28T23:23:18.992Z,65.46
2018-11-28T23:25:46.683Z,65.60
2018-11-28T23:28:15.141Z,65.42
2018-11-28T23:30:42.865Z,65.49
2018-11-28T23:33:15.854Z,64.78
2018-11-28T23:35:38.300Z,64.90
2018-11-28T23:38:06.881Z,65.27
2018-11-28T23:40:35.160Z,65.23
2018-11-28T23:43:03.282Z,65.11
2018-11-28T23:45:31.886Z,65.18
2018-11-28T23:47:59.574Z,65.53
2018-11-28T23:50:27.322Z,64.48
2018-11-28T23:52:55.695Z,65.10
2018-11-28T23:55:27.378Z,65.11
2018-11-28T23:57:55.546Z,65.29
